Weather History for KAJZ - August, 2013

Change the Weather History Date:

Saturday, August 17, 2013

  Actual Average (KMTJ) Record (KMTJ)
Temperature  
Mean Temperature 78 °F 71 °F  
Max Temperature 97 °F 86 °F 97 °F (2002)
Min Temperature 58 °F 56 °F 51 °F (1997)
Degree Days  
Heating Degree Days 0 0  
Month to date heating degree days 0  
Since 1 June heating degree days 39  
Since 1 July heating degree days 0  
Cooling Degree Days 12 6  
Month to date cooling degree days 121  
Year to date cooling degree days 543  
Since 1 June cooling degree days 526  
Growing Degree Days 28 (Base 50)    
Moisture  
Dew Point 37 °F    
Average Humidity 26    
Maximum Humidity 46    
Minimum Humidity 11    
Precipitation  
Precipitation 0.00 in 0.04 in 0.27 in (2005)
Month to date precipitation 0.70  
Year to date precipitation 6.77  
Sea Level Pressure  
Sea Level Pressure 30.18 in    
Wind  
Wind Speed 6 mph (East)    
Max Wind Speed 22 mph    
Max Gust Speed 33 mph    
Visibility 9 miles    
Events      
T = Trace of Precipitation, MM = Missing Value Source: NWS Daily Summary

Daily Weather History Graph

Daily Weather History Graph

Search for Another Location

Airport or City:

Trip Planner

Search our weather history database for the weather conditions in past years. The results will help you decide how hot, cold, wet, or windy it might be!

Date:

Astronomy

Aug. 17, 2013 Rise Set
Actual Time 6:28 AM MDT 8:03 PM MDT
Civil Twilight 5:59 AM MDT 8:31 PM MDT
Nautical Twilight 5:25 AM MDT 9:05 PM MDT
Astronomical Twilight 4:49 AM MDT 9:41 PM MDT
Moon 5:20 PM MDT (8/17) 2:35 AM MDT (8/17)
Length of Visible Light 14h 31m
Length of Day
13h 35m
Waxing Gibbous, 85% of the Moon is Illuminated
Aug 17
Waxing Gibbous
Aug 20
Full
Aug 28
Last Quarter
Sep 5
New
Sep 12
First Quarter

Hourly Weather History & Observations

Time (MDT) Temp. Dew Point Humidity Pressure Visibility Wind Dir Wind Speed Gust Speed Precip Events Conditions
12:15 AM 68.9 °F 36.1 °F 30% 30.19 in 10.0 mi East 3.5 mph - N/A   Clear
12:35 AM 68.0 °F 33.6 °F 28% 30.20 in 10.0 mi East 5.8 mph - N/A   Clear
12:55 AM 66.4 °F 34.0 °F 30% 30.20 in 10.0 mi East 5.8 mph - N/A   Clear
1:15 AM 64.2 °F 33.4 °F 32% 30.20 in 10.0 mi NE 6.9 mph - N/A   Clear
1:35 AM 61.9 °F 37.4 °F 40% 30.20 in 7.0 mi NE 5.8 mph - N/A   Clear
1:55 AM 64.6 °F 34.7 °F 33% 30.20 in 10.0 mi East 5.8 mph - N/A   Clear
2:15 AM 62.1 °F 37.0 °F 39% 30.20 in 10.0 mi ENE 4.6 mph - N/A   Clear
2:35 AM 60.3 °F 38.8 °F 45% 30.20 in 7.0 mi NE 4.6 mph - N/A   Clear
2:55 AM 61.7 °F 36.9 °F 40% 30.20 in 10.0 mi ENE 3.5 mph - N/A   Clear
3:15 AM 62.2 °F 36.3 °F 38% 30.20 in 10.0 mi ENE 5.8 mph - N/A   Clear
3:35 AM 63.9 °F 34.7 °F 34% 30.20 in 10.0 mi NE 8.1 mph - N/A   Clear
3:55 AM 63.0 °F 34.3 °F 34% 30.20 in 10.0 mi ENE 9.2 mph - N/A   Clear
4:15 AM 62.8 °F 35.8 °F 37% 30.20 in 10.0 mi NE 8.1 mph - N/A   Clear
4:35 AM 62.4 °F 34.3 °F 35% 30.21 in 7.0 mi ENE 8.1 mph - N/A   Clear
4:55 AM 61.9 °F 35.8 °F 38% 30.21 in 10.0 mi NE 8.1 mph - N/A   Clear
5:15 AM 61.7 °F 35.8 °F 38% 30.21 in 10.0 mi NE 5.8 mph - N/A   Clear
5:35 AM 61.0 °F 36.9 °F 41% 30.21 in 10.0 mi East 8.1 mph - N/A   Clear
5:55 AM 59.4 °F 34.7 °F 40% 30.22 in 10.0 mi ENE 5.8 mph - N/A   Clear
6:15 AM 58.1 °F 37.2 °F 46% 30.23 in 7.0 mi NE 4.6 mph - N/A   Clear
6:35 AM 58.3 °F 35.6 °F 43% 30.24 in 7.0 mi ENE 4.6 mph - N/A   Clear
6:55 AM 60.6 °F 35.6 °F 39% 30.24 in 10.0 mi ENE 5.8 mph - N/A   Clear
7:15 AM 61.7 °F 36.1 °F 39% 30.24 in 7.0 mi Calm Calm - N/A   Clear
7:35 AM 60.1 °F 36.5 °F 41% 30.25 in 10.0 mi Calm Calm - N/A   Clear
7:55 AM 64.9 °F 34.7 °F 33% 30.25 in 10.0 mi East 4.6 mph - N/A   Clear
8:15 AM 66.4 °F 36.0 °F 33% 30.25 in 10.0 mi East 4.6 mph - N/A   Clear
8:35 AM 65.3 °F 40.3 °F 40% 30.26 in 10.0 mi SE 3.5 mph - N/A   Clear
8:55 AM 67.3 °F 38.7 °F 35% 30.26 in 7.0 mi Calm Calm - N/A   Clear
9:15 AM 70.3 °F 37.6 °F 30% 30.26 in 10.0 mi Calm Calm - N/A   Clear
9:35 AM 73.6 °F 36.5 °F 26% 30.25 in 10.0 mi NNW 4.6 mph - N/A   Clear
9:55 AM 74.1 °F 41.9 °F 31% 30.25 in 10.0 mi Calm Calm - N/A   Clear
10:15 AM 77.4 °F 38.1 °F 24% 30.25 in 10.0 mi Calm Calm - N/A   Clear
10:35 AM 79.3 °F 37.4 °F 22% 30.24 in 10.0 mi NE 5.8 mph - N/A   Clear
10:55 AM 81.0 °F 36.9 °F 21% 30.24 in 10.0 mi SE 3.5 mph - N/A   Clear
11:15 AM 83.3 °F 37.2 °F 19% 30.23 in 10.0 mi ENE 3.5 mph - N/A   Clear
11:35 AM 85.6 °F 35.4 °F 17% 30.22 in 7.0 mi Calm Calm - N/A   Clear
11:55 AM 86.4 °F 35.8 °F 17% 30.21 in 7.0 mi Calm Calm - N/A   Clear
12:15 PM 88.7 °F 32.9 °F 14% 30.20 in 10.0 mi SSE 4.6 mph - N/A   Clear
12:35 PM 90.5 °F 32.7 °F 13% 30.19 in 7.0 mi SSE 6.9 mph - N/A   Clear
12:55 PM 90.9 °F 34.9 °F 14% 30.18 in 10.0 mi South 4.6 mph - N/A   Clear
1:15 PM 92.1 °F 34.3 °F 13% 30.17 in 10.0 mi SSW 5.8 mph - N/A   Clear
1:35 PM 92.7 °F 32.0 °F 12% 30.16 in 10.0 mi SW 3.5 mph - N/A   Clear
1:55 PM 93.7 °F 34.5 °F 12% 30.15 in 10.0 mi SSW 3.5 mph - N/A   Clear
2:15 PM 95.9 °F 36.3 °F 12% 30.14 in 10.0 mi SW 9.2 mph - N/A   Clear
2:35 PM 96.3 °F 35.8 °F 12% 30.13 in 10.0 mi SW 20.7 mph 32.2 mph N/A   Clear
2:55 PM 97.7 °F 34.2 °F 11% 30.14 in 10.0 mi West 21.9 mph 27.6 mph N/A   Clear
3:15 PM 95.2 °F 34.9 °F 12% 30.14 in 10.0 mi West 17.3 mph 33.4 mph N/A   Clear
3:35 PM 94.1 °F 34.3 °F 12% 30.14 in 10.0 mi NW 18.4 mph 25.3 mph N/A   Clear
3:55 PM 93.2 °F 35.4 °F 13% 30.13 in 7.0 mi West 16.1 mph 25.3 mph N/A   Clear
4:15 PM 93.2 °F 34.5 °F 13% 30.11 in 7.0 mi West 17.3 mph 23.0 mph N/A   Clear
4:35 PM 93.0 °F 34.3 °F 13% 30.11 in 7.0 mi West 11.5 mph 17.3 mph N/A   Clear
4:55 PM 94.6 °F 35.4 °F 13% 30.11 in 7.0 mi West 12.7 mph 19.6 mph N/A   Clear
5:15 PM 92.3 °F 36.0 °F 14% 30.11 in 7.0 mi West 16.1 mph 23.0 mph N/A   Clear
5:35 PM 93.4 °F 36.7 °F 14% 30.10 in 7.0 mi West 16.1 mph 23.0 mph N/A   Clear
5:55 PM 93.4 °F 36.1 °F 13% 30.11 in 7.0 mi West 11.5 mph 18.4 mph N/A   Clear
6:15 PM 92.3 °F 37.4 °F 15% 30.10 in 10.0 mi West 11.5 mph 20.7 mph N/A   Clear
6:35 PM 91.9 °F 39.0 °F 16% 30.11 in 10.0 mi WSW 10.4 mph - N/A   Clear
6:55 PM 91.0 °F 36.9 °F 15% 30.11 in 7.0 mi WSW 5.8 mph - N/A   Clear
7:15 PM 91.2 °F 36.9 °F 15% 30.11 in 10.0 mi WSW 4.6 mph - N/A   Clear
7:35 PM 90.0 °F 36.9 °F 15% 30.11 in 10.0 mi WSW 8.1 mph - N/A   Clear
7:55 PM 88.0 °F 41.0 °F 19% 30.12 in 10.0 mi SW 6.9 mph - N/A   Clear
8:15 PM 86.0 °F 41.2 °F 21% 30.12 in 10.0 mi SW 5.8 mph - N/A   Clear
8:35 PM 84.4 °F 42.8 °F 23% 30.12 in 10.0 mi SW 5.8 mph - N/A   Clear
8:55 PM 83.8 °F 42.3 °F 23% 30.12 in 10.0 mi SSW 5.8 mph - N/A   Clear
9:15 PM 80.6 °F 43.3 °F 27% 30.12 in 10.0 mi SW 5.8 mph - N/A   Clear
9:35 PM 79.2 °F 44.4 °F 29% 30.13 in 10.0 mi Calm Calm - N/A   Clear
9:55 PM 78.8 °F 44.6 °F 30% 30.13 in 10.0 mi Calm Calm - N/A   Clear
10:15 PM 78.8 °F 44.6 °F 30% 30.15 in 7.0 mi Calm Calm - N/A   Clear
10:35 PM 77.7 °F 44.6 °F 31% 30.15 in 10.0 mi Calm Calm - N/A   Clear
10:55 PM 73.4 °F 46.8 °F 39% 30.15 in 10.0 mi Calm Calm - N/A   Clear
11:15 PM 73.9 °F 44.4 °F 35% 30.16 in 10.0 mi East 4.6 mph - N/A   Clear
11:35 PM 71.8 °F 43.2 °F 36% 30.17 in 10.0 mi ENE 5.8 mph - N/A   Clear
11:55 PM 70.7 °F 44.6 °F 39% 30.18 in 10.0 mi ENE 5.8 mph - N/A   Clear